Alto Horizonte, Brazil
Current Conditions -  °F | °C
As of 7:00 PM on Sunday 23 Nov 2014 (Local Time) from SBAN Reporting Station
Light Rain Light Rain  
Wind Chill: 64°   Ceiling: 400
Heat Index: 64°   Visibility: 2.5mi
Dew Point: 63°   Wind: 2mph
Humidity: 94%   Direction: 300°WNW
Pressure: 30.03"   Gusts: NA
Location:  14.2°S, 49.34°W
Report Text: SBAN 232100Z 30002KT 4000 -RA BKN004 BKN080 18/17 Q1017 RERA
Loading
Personal Weather Stations






























Interactive Weather Map New forecast layout! Learn more

10-Day Weather Forecast

Advertisements
Track Severe Weather on mobile